Flight Track Log - Related Links

Times and Time Zones

All times are in EDT time to prevent confusion due to time zone crossing. See the SWA3939 flight status page for this flight to view local times or setup timezone preferences in your user account.

Time Position Orientation Groundspeed Altitude Reporting Facility
EDT Latitude Longitude Course Direction KTS MPH feet Rate Location/Type
Sat 07:03:38 PM 45.6231 -122.6878 301° West 214 246 3,000  Level Seattle Center
Sat 07:04:39 PM 45.6531 -122.7622 300° West 229 264 5,900 2,813 Climbing Seattle Center
Sat 07:05:46 PM 45.6067 -122.7903 203° Southwest 234 269 9,000 2,083 Climbing Seattle Center
Sat 07:07:03 PM 45.5636 -122.6886 121° Southeast 270 311 10,900 2,130 Climbing Seattle Center
Sat 07:08:04 PM 45.5194 -122.5689 118° Southeast 325 374 13,900 3,443 Climbing Seattle Center
Sat 07:09:05 PM 45.4828 -122.4433 113° Southeast 339 390 17,900 3,639 Climbing Seattle Center
Sat 07:10:06 PM 45.4408 -122.2978 112° Southeast 333 383 21,300 2,803 Climbing Seattle Center
Sat 07:11:07 PM 45.4042 -122.1694 112° Southeast 347 399 23,600 2,213 Climbing Seattle Center
Sat 07:12:08 PM 45.3650 -122.0361 113° Southeast 362 417 25,800 2,066 Climbing Seattle Center
Sat 07:13:09 PM 45.3292 -121.9147 113° Southeast 370 426 27,800 1,623 Climbing Seattle Center
Sat 07:14:10 PM 45.2886 -121.7775 113° Southeast 376 433 29,100 1,426 Climbing Seattle Center
Sat 07:15:11 PM 45.2350 -121.6000 113° Southeast 404 465 30,700 1,377 Climbing Seattle Center
Sat 07:16:12 PM 45.1886 -121.4464 113° Southeast 419 482 31,900 1,426 Climbing Seattle Center
Sat 07:17:13 PM 45.1428 -121.2878 112° Southeast 435 501 33,600 1,574 Climbing Seattle Center
Sat 07:18:14 PM 45.0953 -121.1336 114° Southeast 430 495 35,100 1,377 Climbing Seattle Center
Sat 07:19:15 PM 45.0469 -120.9783 114° Southeast 433 498 36,400 1,426 Climbing Seattle Center
Sat 07:20:16 PM 44.9989 -120.8217 113° Southeast 436 502 38,000 1,279 Climbing Seattle Center
Sat 07:21:17 PM 44.9519 -120.6700 114° Southeast 425 489 39,000 492 Climbing Seattle Center
Sat 07:22:18 PM 44.8936 -120.5269 120° Southeast 426 490 39,000  Level Seattle Center
Sat 07:23:19 PM 44.8122 -120.4111 135° Southeast 422 486 39,000  Level Seattle Center
Sat 07:24:20 PM 44.7303 -120.2931 134° Southeast 426 490 39,000  Level Seattle Center
Sat 07:25:20 PM 44.6325 -120.1489 134° Southeast 430 495 39,000  Level Seattle Center
Sat 07:26:21 PM 44.5556 -120.0244 131° Southeast 429 494 39,000  Level Seattle Center
Sat 07:27:22 PM 44.4772 -119.8989 131° Southeast 429 494 39,000  Level Seattle Center
Sat 07:28:23 PM 44.4075 -119.7658 126° Southeast 428 493 39,000  Level Seattle Center
Sat 07:29:24 PM 44.3572 -119.6172 115° Southeast 430 495 39,000  Level Seattle Center
Sat 07:30:25 PM 44.3144 -119.4611 111° Southeast 433 498 39,000  Level Seattle Center
Sat 07:31:26 PM 44.2703 -119.3058 112° Southeast 432 497 39,000  Level Seattle Center
Sat 07:32:27 PM 44.2281 -119.1497 111° Southeast 433 498 39,000  Level Seattle Center
Sat 07:33:28 PM 44.1825 -118.9947 112° Southeast 433 498 39,000  Level Seattle Center
Sat 07:34:30 PM 44.1372 -118.8389 112° Southeast 435 501 39,000  Level Salt Lake Center
Sat 07:35:32 PM 44.0847 -118.6486 111° Southeast 439 505 39,000  Level Salt Lake Center
Sat 07:36:34 PM 44.0403 -118.4922 112° Southeast 438 504 39,000  Level Salt Lake Center
Sat 07:37:36 PM 43.9908 -118.3219 112° Southeast 437 503 39,000  Level Salt Lake Center
Sat 07:38:37 PM 43.9458 -118.1719 113° Southeast 430 495 39,000  Level Salt Lake Center
Sat 07:39:39 PM 43.9000 -118.0236 113° Southeast 435 501 39,000  Level Salt Lake Center
Sat 07:40:41 PM 43.8506 -117.8542 112° Southeast 427 491 39,000  Level Salt Lake Center
Sat 07:41:43 PM 43.8083 -117.7097 112° Southeast 424 488 39,000  Level Salt Lake Center
Sat 07:42:44 PM 43.7586 -117.5439 112° Southeast 418 481 39,000  Level Salt Lake Center
Sat 07:43:46 PM 43.7158 -117.4025 113° Southeast 418 481 39,000  Level Salt Lake Center
Sat 07:44:48 PM 43.6675 -117.2394 112° Southeast 414 476 39,000  Level Salt Lake Center
Sat 07:45:49 PM 43.6253 -117.0992 113° Southeast 416 479 39,000  Level Salt Lake Center
Sat 07:46:51 PM 43.5747 -116.9306 112° Southeast 425 489 39,000  Level Salt Lake Center
Sat 07:47:53 PM 43.5311 -116.7897 113° Southeast 419 482 39,000  Level Salt Lake Center
Sat 07:48:55 PM 43.4803 -116.6247 113° Southeast 419 482 39,000  Level Salt Lake Center
Sat 07:49:56 PM 43.4356 -116.4819 113° Southeast 427 491 39,000  Level Salt Lake Center
Sat 07:50:58 PM 43.3914 -116.3381 113° Southeast 428 493 39,000  Level Salt Lake Center
Sat 07:52:00 PM 43.3392 -116.1728 113° Southeast 424 488 39,000  Level Salt Lake Center
Sat 07:53:01 PM 43.2947 -116.0300 113° Southeast 427 491 39,000  Level Salt Lake Center
Sat 07:54:03 PM 43.2411 -115.8603 113° Southeast 435 501 39,000  Level Salt Lake Center
Sat 07:55:05 PM 43.1953 -115.7144 113° Southeast 434 499 39,000  Level Salt Lake Center
Sat 07:56:07 PM 43.1397 -115.5431 114° Southeast 440 506 39,000  Level Salt Lake Center
Sat 07:57:08 PM 43.0931 -115.3994 114° Southeast 434 499 39,000  Level Salt Lake Center
Sat 07:58:10 PM 43.0378 -115.2294 114° Southeast 441 507 39,000  Level Salt Lake Center
Sat 07:59:12 PM 42.9894 -115.0831 114° Southeast 442 509 39,000  Level Salt Lake Center
Sat 08:00:13 PM 42.9419 -114.9372 114° Southeast 440 506 39,000  Level Salt Lake Center
Sat 08:01:15 PM 42.8856 -114.7681 114° Southeast 439 505 39,000  Level Salt Lake Center
Sat 08:02:17 PM 42.8378 -114.6244 114° Southeast 436 502 39,000 -49 Level Salt Lake Center
Sat 08:03:18 PM 42.7861 -114.4692 114° Southeast 433 498 38,900 -488 Descending Salt Lake Center
Sat 08:04:20 PM 42.7358 -114.3178 114° Southeast 441 507 38,000 -919 Descending Salt Lake Center
Sat 08:05:22 PM 42.6836 -114.1661 115° Southeast 445 512 37,000 -976 Descending Salt Lake Center
Sat 08:06:23 PM 42.6317 -114.0150 115° Southeast 444 511 36,000 -1,016 Descending Salt Lake Center
Sat 08:07:26 PM 42.5617 -113.8375 118° Southeast 446 513 34,900 -1,113 Descending Salt Lake Center
Sat 08:08:27 PM 42.4775 -113.7178 134° Southeast 442 509 33,700 -1,623 Descending Salt Lake Center
Sat 08:09:28 PM 42.3894 -113.6089 138° Southeast 433 498 31,600 -2,049 Descending Salt Lake Center
Sat 08:10:30 PM 42.3086 -113.5008 135° Southeast 417 480 29,500 -1,258 Descending Salt Lake Center
Sat 08:11:32 PM 42.2297 -113.3981 136° Southeast 400 460 29,000 -244 Descending Salt Lake Center
Sat 08:12:33 PM 42.1536 -113.2964 135° Southeast 387 445 29,000  Level Salt Lake Center
Sat 08:13:35 PM 42.0764 -113.1961 136° Southeast 387 445 29,000 -732 Level Salt Lake Center
Sat 08:14:36 PM 41.9847 -113.0736 135° Southeast 387 445 27,500 -1,659 Descending Salt Lake Center
Sat 08:15:38 PM 41.9094 -112.9753 136° Southeast 379 436 25,600 -1,790 Descending Salt Lake Center
Sat 08:16:40 PM 41.8361 -112.8811 136° Southeast 367 422 23,800 -1,805 Descending Salt Lake Center
Sat 08:17:41 PM 41.7642 -112.7881 136° Southeast 362 417 21,900 -1,805 Descending Salt Lake Center
Sat 08:18:43 PM 41.6894 -112.6939 137° Southeast 369 425 20,100 -1,920 Descending Salt Lake Center
Sat 08:19:21 PM 41.6414 -112.6181 130° Southeast 358 412 18,700 -1,886 Descending Salt Lake Center
Sat 08:20:28 PM 41.5653 -112.5233 137° Southeast 350 403 16,800 -1,453 Descending Salt Lake Center
Sat 08:21:29 PM 41.4906 -112.4456 142° Southeast 338 389 15,600 -1,086 Descending Salt Lake Center
Sat 08:22:24 PM 41.4242 -112.3792 143° Southeast 329 379 14,700 -992 Descending Salt Lake Center
Sat 08:23:30 PM 41.3469 -112.3025 143° Southeast 322 371 13,600 -1,039 Descending Salt Lake Center
Sat 08:24:31 PM 41.2706 -112.2283 144° Southeast 316 364 12,500 -1,339 Descending Salt Lake Center
Sat 08:25:31 PM 41.2008 -112.1581 143° Southeast 315 362 10,900 -1,438 Descending Salt Lake Center
Sat 08:26:32 PM 41.1253 -112.1125 156° South 296 341 9,600 -934 Descending Salt Lake Center
Sat 08:27:33 PM 41.0528 -112.0717 157° South 278 320 9,000 -992 Descending Salt Lake Center
Sat 08:28:33 PM 40.9906 -112.0389 158° South 246 283 7,600 -1,276 Descending Salt Lake Center
Sat 08:29:40 PM 40.9256 -112.0042 158° South 232 267 6,300 -942 Descending Salt Lake Center
Sat 08:30:34 PM 40.8836 -111.9872 163° South 167 192 5,700 -678 Descending Salt Lake Center
Sat 08:31:35 PM 40.8442 -111.9836 176° South 140 161 5,000 -596 Descending Salt Lake Center
Sat 08:33:05 PM 40.7944 -111.9753 173° South 129 148 4,200 -533 Descending Salt Lake Center

Login

Don't have an account? Register now (free) for customized features, flight alerts, and more!